Аэропорт: Борисполь. Киев

ICAO: UKBB

METAR:
2019-12-12 11:30:00
UKBB 121130Z 14003MPS 5000 BR OVC003 03/03 Q1018 R88/290050 NOSIG
METAR:
2019-12-12 09:45:00
TAF AMD UKBB 120945Z 1209/1306 12005G10MPS 1200 BR OVC002 TX03/1212Z TNM01/1304Z TEMPO 1209/1212 0400 -DZ FG OVC001 BECMG 1212/1213 3000 BR OVC004 TEMPO 1213/1218 1000 -DZ BR OVC002 TEMPO 1218/1306 0500 FZFG VV002